createdAt,value
2023-07-15T00:01:24.694Z,15.90
2023-07-15T00:06:28.259Z,8.60
2023-07-15T00:11:44.585Z,17.42
2023-07-15T00:16:46.950Z,11.35
2023-07-15T00:21:49.826Z,10.43
2023-07-15T00:26:54.146Z,13.82
2023-07-15T00:31:58.501Z,17.55
2023-07-15T00:37:00.854Z,6.65
2023-07-15T00:42:11.359Z,8.10
2023-07-15T00:47:49.387Z,8.02
2023-07-15T00:52:53.137Z,9.68
2023-07-15T00:57:58.650Z,11.02
2023-07-15T01:03:01.279Z,14.95
2023-07-15T01:08:11.827Z,16.40
2023-07-15T01:13:14.600Z,10.77
2023-07-15T01:18:17.619Z,10.48
2023-07-15T01:23:20.570Z,10.90
2023-07-15T01:28:23.218Z,9.35
2023-07-15T01:33:26.236Z,9.32
2023-07-15T01:38:28.540Z,11.77
2023-07-15T01:43:30.728Z,7.57
2023-07-15T01:48:32.881Z,6.18
2023-07-15T01:53:35.097Z,13.45
2023-07-15T01:58:37.348Z,7.53
2023-07-15T02:03:41.396Z,9.38
2023-07-15T02:08:45.908Z,15.32
2023-07-15T02:13:48.270Z,7.78
2023-07-15T02:18:52.293Z,6.85
2023-07-15T02:23:54.712Z,18.80
2023-07-15T02:28:56.935Z,24.27
2023-07-15T02:34:00.821Z,16.67
2023-07-15T02:39:05.831Z,12.60
2023-07-15T02:44:08.904Z,10.30
2023-07-15T02:49:11.245Z,12.90
2023-07-15T02:54:13.481Z,19.23
2023-07-15T02:59:15.808Z,18.92
2023-07-15T03:04:18.373Z,20.45
2023-07-15T03:09:20.711Z,17.60
2023-07-15T03:14:23.017Z,13.15
2023-07-15T03:19:25.274Z,15.77
2023-07-15T03:24:27.581Z,15.75
2023-07-15T03:29:30.018Z,16.45
2023-07-15T03:34:32.528Z,15.55
2023-07-15T03:39:35.666Z,16.95
2023-07-15T03:44:38.012Z,11.85
2023-07-15T03:49:40.518Z,16.48
2023-07-15T03:54:45.699Z,19.23
2023-07-15T03:59:47.846Z,11.82
2023-07-15T04:04:50.032Z,16.73
2023-07-15T04:09:52.278Z,11.57
2023-07-15T04:14:54.980Z,21.85
2023-07-15T04:19:57.194Z,25.38
2023-07-15T04:24:59.660Z,24.08
2023-07-15T04:30:04.602Z,17.73
2023-07-15T04:35:07.300Z,8.32
2023-07-15T04:40:12.455Z,11.15
2023-07-15T04:45:14.862Z,13.40
2023-07-15T04:50:17.065Z,16.25
2023-07-15T04:55:19.491Z,14.20
2023-07-15T05:00:21.918Z,19.00
2023-07-15T05:05:24.089Z,22.08
2023-07-15T05:10:26.552Z,13.45
2023-07-15T05:15:29.807Z,15.70
2023-07-15T05:20:34.781Z,18.85
2023-07-15T05:25:37.071Z,9.63
2023-07-15T05:30:40.219Z,13.80
2023-07-15T05:35:42.459Z,21.48
2023-07-15T05:40:46.913Z,18.08
2023-07-15T05:45:49.378Z,12.45
2023-07-15T05:50:52.500Z,18.05
2023-07-15T05:55:56.687Z,20.92
2023-07-15T06:01:02.539Z,19.90
2023-07-15T06:06:04.799Z,23.10
2023-07-15T06:11:07.994Z,19.98
2023-07-15T06:16:10.211Z,12.77
2023-07-15T06:21:12.582Z,9.88
2023-07-15T06:26:17.886Z,15.18
2023-07-15T06:31:20.606Z,15.30
2023-07-15T06:36:24.089Z,13.90
2023-07-15T06:41:26.200Z,12.35
2023-07-15T06:46:32.643Z,13.05
2023-07-15T06:51:35.074Z,9.77
2023-07-15T06:56:37.349Z,5.85
2023-07-15T07:01:40.115Z,12.73
2023-07-15T07:06:42.425Z,7.95
2023-07-15T07:11:44.660Z,10.13
2023-07-15T07:16:46.928Z,6.70
2023-07-15T07:21:49.163Z,11.55
2023-07-15T07:26:52.293Z,13.10
2023-07-15T07:31:55.023Z,7.90
2023-07-15T07:36:57.166Z,6.50
2023-07-15T07:41:59.799Z,12.25
2023-07-15T07:47:04.333Z,9.68
2023-07-15T07:52:07.893Z,21.23
2023-07-15T07:57:15.345Z,5.90
2023-07-15T08:02:26.421Z,7.18
2023-07-15T08:07:28.868Z,6.28
2023-07-15T08:12:31.556Z,10.93
2023-07-15T08:17:33.820Z,16.38
2023-07-15T08:22:39.982Z,12.10
2023-07-15T08:27:42.122Z,2.75
2023-07-15T08:32:44.349Z,15.88
2023-07-15T08:37:47.179Z,7.50
2023-07-15T08:42:49.461Z,6.40
2023-07-15T08:47:52.080Z,6.28
2023-07-15T08:52:54.416Z,9.23
2023-07-15T08:57:59.080Z,8.95
2023-07-15T09:03:02.262Z,14.05
2023-07-15T09:08:10.848Z,8.38
2023-07-15T09:13:12.977Z,7.38
2023-07-15T09:18:16.503Z,8.43
2023-07-15T09:23:19.596Z,6.53
2023-07-15T09:28:22.642Z,9.75
2023-07-15T09:33:32.298Z,9.57
2023-07-15T09:38:37.431Z,7.40
2023-07-15T09:43:50.615Z,3.92
2023-07-15T09:48:53.023Z,4.90
2023-07-15T09:53:56.616Z,5.82
2023-07-15T09:59:07.787Z,6.50
2023-07-15T10:04:26.894Z,9.15
2023-07-15T10:09:31.818Z,7.78
2023-07-15T10:14:35.096Z,6.25
2023-07-15T10:19:42.854Z,4.57
2023-07-15T10:24:53.562Z,4.47
2023-07-15T10:30:19.005Z,8.00
2023-07-15T10:35:21.357Z,10.38
2023-07-15T10:40:51.141Z,3.35
2023-07-15T10:45:55.815Z,7.28
2023-07-15T10:51:00.986Z,15.35
2023-07-15T10:56:11.266Z,15.80
2023-07-15T11:01:14.401Z,4.10
2023-07-15T11:06:17.173Z,6.57
2023-07-15T11:11:19.784Z,14.15
2023-07-15T11:16:22.691Z,13.63
2023-07-15T11:21:24.894Z,7.47
2023-07-15T11:26:28.140Z,11.77
2023-07-15T11:31:31.576Z,7.90
2023-07-15T11:36:33.884Z,12.10
2023-07-15T11:41:37.949Z,7.60
2023-07-15T11:46:41.639Z,13.23
2023-07-15T11:51:44.984Z,12.40
2023-07-15T11:56:48.534Z,8.27
2023-07-15T12:01:50.824Z,7.43
2023-07-15T12:06:56.973Z,8.88
2023-07-15T12:11:59.198Z,8.55
2023-07-15T12:17:03.960Z,11.63
2023-07-15T12:22:06.556Z,15.43
2023-07-15T12:27:08.674Z,10.20
2023-07-15T12:32:10.819Z,10.52
2023-07-15T12:37:12.944Z,11.80
2023-07-15T12:42:40.792Z,10.43
2023-07-15T12:47:43.108Z,9.85
2023-07-15T12:52:45.500Z,7.72
2023-07-15T12:57:50.243Z,9.75
2023-07-15T13:02:52.644Z,8.38
2023-07-15T13:07:55.207Z,13.88
2023-07-15T13:12:58.389Z,12.30
2023-07-15T13:18:00.589Z,8.73
2023-07-15T13:23:02.977Z,10.30
2023-07-15T13:28:06.006Z,9.38
2023-07-15T13:33:08.243Z,13.25
2023-07-15T13:38:10.401Z,9.27
2023-07-15T13:43:12.569Z,15.80
2023-07-15T13:48:14.794Z,16.30
2023-07-15T13:53:17.040Z,11.73
2023-07-15T13:58:19.342Z,13.05
2023-07-15T14:03:21.597Z,9.48
2023-07-15T14:08:23.882Z,13.27
2023-07-15T14:13:26.045Z,15.75
2023-07-15T14:18:28.192Z,15.20
2023-07-15T14:23:32.061Z,13.85
2023-07-15T14:28:34.347Z,14.20
2023-07-15T14:33:37.780Z,11.30
2023-07-15T14:38:39.924Z,14.38
2023-07-15T14:43:42.075Z,11.75
2023-07-15T14:48:44.766Z,13.80
2023-07-15T14:53:46.961Z,16.05
2023-07-15T14:58:49.255Z,14.85
2023-07-15T15:03:51.445Z,16.92
2023-07-15T15:08:53.830Z,14.13
2023-07-15T15:13:55.984Z,18.20
2023-07-15T15:18:58.192Z,19.00
2023-07-15T15:24:00.365Z,22.13
2023-07-15T15:29:03.194Z,20.23
2023-07-15T15:34:06.496Z,16.02
2023-07-15T15:39:09.508Z,15.70
2023-07-15T15:44:11.719Z,21.48
2023-07-15T15:49:14.143Z,21.20
2023-07-15T15:54:16.339Z,18.63
2023-07-15T15:59:18.797Z,17.90
2023-07-15T16:04:21.032Z,16.02
2023-07-15T16:09:27.189Z,25.00
2023-07-15T16:14:29.832Z,18.40
2023-07-15T16:19:31.999Z,16.33
2023-07-15T16:24:34.142Z,14.23
2023-07-15T16:29:36.398Z,19.30
2023-07-15T16:34:38.600Z,18.35
2023-07-15T16:39:40.742Z,13.50
2023-07-15T16:44:43.804Z,21.50
2023-07-15T16:49:45.972Z,15.23
2023-07-15T16:54:48.164Z,17.48
2023-07-15T16:59:51.430Z,20.27
2023-07-15T17:04:53.644Z,24.05
2023-07-15T17:09:55.894Z,19.73
2023-07-15T17:14:58.307Z,21.35
2023-07-15T17:20:00.559Z,26.38
2023-07-15T17:25:03.013Z,28.65
2023-07-15T17:30:05.857Z,16.52
2023-07-15T17:35:08.771Z,27.35
2023-07-15T17:40:11.397Z,25.67
2023-07-15T17:45:13.606Z,22.30
2023-07-15T17:50:15.880Z,23.75
2023-07-15T17:55:24.559Z,22.85
2023-07-15T18:00:28.285Z,27.75
2023-07-15T18:05:30.495Z,29.30
2023-07-15T18:10:32.881Z,35.00
2023-07-15T18:15:35.195Z,22.23
2023-07-15T18:20:37.436Z,29.48
2023-07-15T18:25:39.655Z,28.70
2023-07-15T18:30:44.887Z,21.25
2023-07-15T18:35:47.046Z,21.38
2023-07-15T18:40:49.462Z,28.33
2023-07-15T18:45:52.774Z,32.35
2023-07-15T18:50:54.978Z,37.00
2023-07-15T18:55:57.143Z,34.95
2023-07-15T19:01:01.909Z,29.60
2023-07-15T19:06:05.200Z,17.00
2023-07-15T19:11:07.387Z,25.60
2023-07-15T19:16:09.782Z,18.60
2023-07-15T19:21:15.882Z,25.27
2023-07-15T19:26:18.575Z,28.05
2023-07-15T19:31:20.836Z,31.70
2023-07-15T19:36:25.407Z,29.30
2023-07-15T19:41:28.586Z,27.88
2023-07-15T19:46:34.614Z,31.23
2023-07-15T19:51:46.009Z,31.38
2023-07-15T19:56:49.169Z,25.15
2023-07-15T20:01:51.384Z,35.78
2023-07-15T20:06:55.625Z,36.03
2023-07-15T20:12:00.934Z,33.22
2023-07-15T20:17:03.508Z,25.48
2023-07-15T20:22:06.089Z,32.58
2023-07-15T20:27:08.354Z,30.80
2023-07-15T20:32:10.591Z,30.77
2023-07-15T20:37:13.315Z,26.55
2023-07-15T20:42:15.499Z,19.58
2023-07-15T20:47:19.639Z,19.67
2023-07-15T20:52:22.929Z,26.23
2023-07-15T20:57:26.171Z,24.85
2023-07-15T21:02:29.064Z,31.55
2023-07-15T21:07:36.895Z,21.33
2023-07-15T21:12:39.132Z,30.60
2023-07-15T21:17:41.391Z,30.35
2023-07-15T21:22:43.709Z,33.50
2023-07-15T21:27:46.285Z,31.77
2023-07-15T21:32:50.382Z,27.52
2023-07-15T21:37:52.721Z,25.90
2023-07-15T21:42:54.976Z,25.95
2023-07-15T21:47:57.409Z,29.38
2023-07-15T21:52:59.614Z,32.83
2023-07-15T21:58:04.202Z,23.33
2023-07-15T22:03:08.703Z,34.45
2023-07-15T22:08:11.221Z,31.38
2023-07-15T22:13:13.592Z,29.95
2023-07-15T22:18:37.834Z,29.40
2023-07-15T22:23:41.331Z,29.23
2023-07-15T22:28:43.768Z,44.83
2023-07-15T22:33:46.008Z,41.40
2023-07-15T22:38:48.182Z,41.45
2023-07-15T22:43:50.394Z,46.15
2023-07-15T22:48:53.604Z,34.47
2023-07-15T22:53:59.647Z,47.08
2023-07-15T22:59:08.044Z,51.45
2023-07-15T23:04:10.282Z,32.70
2023-07-15T23:09:12.487Z,43.30
2023-07-15T23:14:18.065Z,32.70
2023-07-15T23:19:22.637Z,43.20
2023-07-15T23:24:24.852Z,32.38
2023-07-15T23:29:27.107Z,43.67
2023-07-15T23:34:29.297Z,21.35
2023-07-15T23:39:31.454Z,25.55
2023-07-15T23:44:33.651Z,23.38
2023-07-15T23:49:36.112Z,22.15
2023-07-15T23:54:38.271Z,29.17
2023-07-15T23:59:41.601Z,27.85
